createdAt,value
2023-04-09T00:00:16.177Z,13.18
2023-04-09T00:02:42.814Z,13.38
2023-04-09T00:05:09.699Z,10.15
2023-04-09T00:07:36.366Z,11.45
2023-04-09T00:10:03.707Z,10.05
2023-04-09T00:12:30.425Z,11.95
2023-04-09T00:20:37.536Z,9.45
2023-04-09T00:23:04.173Z,12.48
2023-04-09T00:25:31.046Z,10.68
2023-04-09T00:27:57.926Z,13.32
2023-04-09T00:30:24.854Z,9.20
2023-04-09T00:32:51.559Z,11.77
2023-04-09T00:35:18.349Z,10.25
2023-04-09T00:37:44.942Z,12.13
2023-04-09T00:40:11.833Z,10.80
2023-04-09T00:42:38.539Z,14.13
2023-04-09T00:45:06.431Z,12.05
2023-04-09T00:47:34.803Z,16.30
2023-04-09T00:50:02.413Z,15.10
2023-04-09T00:52:32.369Z,11.38
2023-04-09T00:55:05.040Z,10.70
2023-04-09T00:57:32.331Z,15.43
2023-04-09T00:59:58.971Z,10.15
2023-04-09T01:02:28.696Z,10.65
2023-04-09T01:04:55.436Z,11.20
2023-04-09T01:07:37.147Z,15.55
2023-04-09T01:10:16.320Z,12.35
2023-04-09T01:12:55.035Z,18.52
2023-04-09T01:15:26.967Z,9.57
2023-04-09T01:18:02.086Z,11.15
2023-04-09T01:20:56.280Z,11.50
2023-04-09T01:23:32.021Z,13.10
2023-04-09T01:26:30.972Z,8.75
2023-04-09T01:28:57.842Z,10.60
2023-04-09T01:31:32.010Z,9.55
2023-04-09T01:34:01.152Z,11.60
2023-04-09T01:36:29.690Z,11.07
2023-04-09T01:38:57.058Z,10.43
2023-04-09T01:41:25.100Z,12.15
2023-04-09T01:43:52.229Z,12.98
2023-04-09T01:46:21.044Z,18.77
2023-04-09T01:48:48.799Z,11.80
2023-04-09T01:51:15.859Z,12.32
2023-04-09T01:53:42.852Z,12.23
2023-04-09T01:56:10.203Z,11.32
2023-04-09T01:58:36.935Z,10.20
2023-04-09T02:01:11.902Z,10.55
2023-04-09T02:03:45.316Z,8.43
2023-04-09T02:06:44.150Z,12.13
2023-04-09T02:09:12.610Z,11.15
2023-04-09T02:11:43.164Z,11.70
2023-04-09T02:14:12.110Z,12.50
2023-04-09T02:16:40.006Z,11.13
2023-04-09T02:19:06.639Z,9.90
2023-04-09T02:21:33.632Z,11.95
2023-04-09T02:24:00.358Z,11.82
2023-04-09T02:26:27.010Z,9.02
2023-04-09T02:28:53.914Z,8.30
2023-04-09T02:31:20.833Z,11.82
2023-04-09T02:33:47.461Z,10.73
2023-04-09T02:36:14.201Z,9.23
2023-04-09T02:38:42.232Z,12.00
2023-04-09T02:41:09.643Z,11.52
2023-04-09T02:43:36.325Z,15.35
2023-04-09T02:46:03.248Z,9.93
2023-04-09T02:48:30.035Z,15.45
2023-04-09T02:50:57.061Z,10.40
2023-04-09T02:53:23.641Z,11.55
2023-04-09T02:55:50.239Z,12.40
2023-04-09T02:58:17.072Z,8.40
2023-04-09T03:00:43.655Z,8.75
2023-04-09T03:03:10.697Z,8.35
2023-04-09T03:05:38.070Z,10.55
2023-04-09T03:08:04.753Z,11.80
2023-04-09T03:10:31.356Z,9.80
2023-04-09T03:12:58.019Z,8.25
2023-04-09T03:15:24.577Z,10.70
2023-04-09T03:17:51.583Z,9.07
2023-04-09T03:20:18.318Z,8.80
2023-04-09T03:22:44.901Z,8.02
2023-04-09T03:25:11.578Z,9.38
2023-04-09T03:27:38.426Z,10.45
2023-04-09T03:30:05.474Z,10.35
2023-04-09T03:32:32.114Z,11.68
2023-04-09T03:34:58.769Z,9.80
2023-04-09T03:37:25.375Z,12.05
2023-04-09T03:39:51.974Z,12.25
2023-04-09T03:42:18.665Z,11.60
2023-04-09T03:44:45.366Z,10.63
2023-04-09T03:47:12.002Z,11.20
2023-04-09T03:49:38.668Z,10.85
2023-04-09T03:52:06.851Z,9.40
2023-04-09T03:54:33.380Z,9.95
2023-04-09T03:57:00.055Z,9.45
2023-04-09T03:59:26.603Z,13.20
2023-04-09T04:01:53.234Z,9.55
2023-04-09T04:04:22.821Z,12.07
2023-04-09T04:06:50.410Z,10.20
2023-04-09T04:09:17.018Z,10.18
2023-04-09T04:11:43.681Z,12.37
2023-04-09T04:14:10.333Z,9.85
2023-04-09T04:16:37.020Z,9.70
2023-04-09T04:19:03.717Z,9.90
2023-04-09T04:21:30.372Z,10.13
2023-04-09T04:23:57.034Z,12.02
2023-04-09T04:26:23.665Z,9.30
2023-04-09T04:28:50.613Z,9.03
2023-04-09T04:31:17.383Z,7.87
2023-04-09T04:33:44.266Z,8.77
2023-04-09T04:36:12.768Z,8.43
2023-04-09T04:38:40.007Z,9.13
2023-04-09T04:41:06.641Z,7.87
2023-04-09T04:43:33.566Z,10.07
2023-04-09T04:46:00.246Z,9.00
2023-04-09T04:48:28.756Z,9.93
2023-04-09T04:51:00.784Z,9.85
2023-04-09T04:53:27.704Z,9.17
2023-04-09T04:55:54.760Z,9.80
2023-04-09T04:58:21.365Z,8.93
2023-04-09T05:00:48.030Z,8.45
2023-04-09T05:03:14.893Z,7.20
2023-04-09T05:05:41.647Z,9.20
2023-04-09T05:08:08.462Z,7.60
2023-04-09T05:10:35.108Z,8.73
2023-04-09T05:13:01.749Z,8.70
2023-04-09T05:15:28.473Z,9.60
2023-04-09T05:17:55.191Z,7.68
2023-04-09T05:20:21.990Z,8.38
2023-04-09T05:22:48.652Z,10.50
2023-04-09T05:25:16.482Z,7.90
2023-04-09T05:27:43.238Z,7.77
2023-04-09T05:30:10.365Z,9.40
2023-04-09T05:32:37.273Z,9.32
2023-04-09T05:35:04.291Z,9.88
2023-04-09T05:37:31.019Z,8.02
2023-04-09T05:39:57.738Z,8.82
2023-04-09T05:42:24.364Z,11.68
2023-04-09T05:44:51.112Z,6.68
2023-04-09T05:47:17.743Z,7.15
2023-04-09T05:49:44.372Z,9.50
2023-04-09T05:52:11.016Z,8.55
2023-04-09T05:54:37.910Z,8.98
2023-04-09T05:57:04.689Z,9.60
2023-04-09T05:59:31.401Z,6.97
2023-04-09T06:01:58.135Z,7.03
2023-04-09T06:04:24.976Z,8.13
2023-04-09T06:06:51.803Z,8.20
2023-04-09T06:09:18.419Z,10.60
2023-04-09T06:11:45.019Z,8.63
2023-04-09T06:14:16.367Z,9.68
2023-04-09T06:16:43.050Z,9.07
2023-04-09T06:19:09.893Z,8.45
2023-04-09T06:21:36.497Z,8.73
2023-04-09T06:24:03.226Z,7.82
2023-04-09T06:26:30.007Z,7.55
2023-04-09T06:28:56.581Z,8.57
2023-04-09T06:31:23.281Z,9.57
2023-04-09T06:33:49.931Z,8.27
2023-04-09T06:36:16.592Z,8.75
2023-04-09T06:38:43.226Z,14.18
2023-04-09T06:41:12.624Z,8.80
2023-04-09T06:43:39.233Z,9.55
2023-04-09T06:46:05.898Z,10.57
2023-04-09T06:48:32.727Z,8.40
2023-04-09T06:50:59.406Z,7.90
2023-04-09T06:53:26.142Z,7.47
2023-04-09T06:55:52.799Z,9.93
2023-04-09T06:58:21.078Z,7.60
2023-04-09T07:00:47.679Z,8.25
2023-04-09T07:03:15.026Z,8.88
2023-04-09T07:05:41.930Z,8.27
2023-04-09T07:08:08.625Z,7.60
2023-04-09T07:10:35.258Z,7.32
2023-04-09T07:13:01.915Z,8.32
2023-04-09T07:15:28.654Z,8.98
2023-04-09T07:17:55.465Z,9.15
2023-04-09T07:20:22.016Z,18.10
2023-04-09T07:22:48.822Z,8.13
2023-04-09T07:25:16.222Z,7.80
2023-04-09T07:27:43.427Z,9.23
2023-04-09T07:30:10.952Z,7.68
2023-04-09T07:32:38.204Z,7.85
2023-04-09T07:35:08.042Z,8.00
2023-04-09T07:37:34.887Z,8.90
2023-04-09T07:40:03.960Z,9.65
2023-04-09T07:42:30.867Z,9.38
2023-04-09T07:44:57.714Z,10.02
2023-04-09T07:47:24.791Z,8.88
2023-04-09T07:49:51.577Z,9.63
2023-04-09T07:52:18.514Z,9.05
2023-04-09T07:54:45.185Z,10.13
2023-04-09T07:57:11.752Z,9.43
2023-04-09T07:59:38.565Z,11.52
2023-04-09T08:02:05.572Z,10.70
2023-04-09T08:04:32.376Z,9.65
2023-04-09T08:06:59.200Z,10.40
2023-04-09T08:09:26.015Z,10.27
2023-04-09T08:11:53.299Z,9.07
2023-04-09T08:14:19.909Z,10.23
2023-04-09T08:16:47.783Z,10.35
2023-04-09T08:19:16.381Z,9.68
2023-04-09T08:21:43.769Z,10.43
2023-04-09T08:24:11.657Z,9.77
2023-04-09T08:26:39.407Z,8.90
2023-04-09T08:29:07.005Z,9.07
2023-04-09T08:31:34.030Z,9.70
2023-04-09T08:34:01.213Z,8.73
2023-04-09T08:36:27.881Z,10.80
2023-04-09T08:38:56.557Z,8.60
2023-04-09T08:41:26.074Z,7.47
2023-04-09T08:46:24.113Z,8.07
2023-04-09T08:48:52.156Z,7.95
2023-04-09T08:51:21.747Z,9.65
2023-04-09T08:53:53.443Z,8.63
2023-04-09T08:56:21.986Z,7.60
2023-04-09T08:58:48.728Z,8.40
2023-04-09T09:01:22.441Z,8.50
2023-04-09T09:04:15.511Z,7.95
2023-04-09T09:06:42.308Z,9.20
2023-04-09T09:09:10.297Z,6.72
2023-04-09T09:11:42.524Z,8.30
2023-04-09T09:14:11.275Z,6.65
2023-04-09T09:16:44.039Z,6.90
2023-04-09T09:19:30.276Z,7.25
2023-04-09T09:21:58.267Z,8.50
2023-04-09T09:24:24.879Z,7.60
2023-04-09T09:26:52.278Z,5.90
2023-04-09T09:29:19.927Z,6.60
2023-04-09T09:31:51.401Z,6.13
2023-04-09T09:34:19.705Z,8.15
2023-04-09T09:36:46.961Z,7.18
2023-04-09T09:39:17.274Z,6.95
2023-04-09T09:41:48.760Z,5.82
2023-04-09T09:44:32.420Z,6.40
2023-04-09T09:47:00.697Z,6.60
2023-04-09T09:49:27.290Z,5.10
2023-04-09T09:51:59.539Z,6.35
2023-04-09T09:54:31.947Z,7.70
2023-04-09T09:57:02.888Z,4.80
2023-04-09T10:02:04.335Z,5.05
2023-04-09T10:04:35.266Z,6.03
2023-04-09T10:07:05.769Z,6.15
2023-04-09T10:09:35.899Z,7.30
2023-04-09T10:12:07.000Z,5.67
2023-04-09T10:14:36.009Z,14.38
2023-04-09T10:17:04.126Z,5.22
2023-04-09T10:19:44.574Z,4.72
2023-04-09T10:22:14.057Z,5.85
2023-04-09T10:24:41.658Z,5.40
2023-04-09T10:27:15.241Z,4.88
2023-04-09T10:29:48.656Z,4.88
2023-04-09T10:32:21.638Z,5.10
2023-04-09T10:34:50.600Z,4.65
2023-04-09T10:37:22.795Z,4.25
2023-04-09T10:39:51.562Z,5.18
2023-04-09T10:42:40.813Z,3.38
2023-04-09T10:45:08.749Z,5.45
2023-04-09T10:47:37.867Z,4.65
2023-04-09T10:50:19.294Z,4.40
2023-04-09T10:52:46.020Z,4.57
2023-04-09T10:55:37.981Z,4.38
2023-04-09T10:58:06.194Z,4.47
2023-04-09T11:00:37.231Z,4.00
2023-04-09T11:03:04.885Z,3.70
2023-04-09T11:05:34.323Z,4.28
2023-04-09T11:08:12.551Z,4.18
2023-04-09T11:10:44.913Z,3.70
2023-04-09T11:13:13.494Z,3.88
2023-04-09T11:15:40.880Z,3.80
2023-04-09T11:18:09.788Z,4.25
2023-04-09T11:20:37.097Z,6.35
2023-04-09T11:23:03.767Z,4.80
2023-04-09T11:25:32.355Z,3.95
2023-04-09T11:27:59.438Z,4.07
2023-04-09T11:30:26.328Z,4.80
2023-04-09T11:32:53.193Z,4.13
2023-04-09T11:35:21.605Z,3.63
2023-04-09T11:37:50.029Z,4.07
2023-04-09T11:40:19.416Z,3.40
2023-04-09T11:42:49.147Z,4.53
2023-04-09T11:45:16.969Z,4.57
2023-04-09T11:47:45.045Z,4.38
2023-04-09T11:50:13.366Z,4.30
2023-04-09T11:52:41.454Z,4.40
2023-04-09T11:55:09.872Z,4.43
2023-04-09T11:57:43.023Z,5.10
2023-04-09T12:00:17.210Z,3.83
2023-04-09T12:02:49.006Z,6.50
2023-04-09T12:05:24.810Z,4.70
2023-04-09T12:10:30.413Z,5.32
2023-04-09T12:13:03.434Z,3.85
2023-04-09T12:15:35.009Z,4.30
2023-04-09T12:18:02.106Z,4.72
2023-04-09T12:20:41.492Z,4.07
2023-04-09T12:23:09.925Z,4.28
2023-04-09T12:25:39.044Z,5.60
2023-04-09T12:28:07.065Z,3.78
2023-04-09T12:30:33.855Z,4.22
2023-04-09T12:33:01.205Z,3.95
2023-04-09T12:35:28.455Z,3.22
2023-04-09T12:37:55.668Z,4.45
2023-04-09T12:40:22.638Z,3.58
2023-04-09T12:42:49.302Z,3.45
2023-04-09T12:45:17.488Z,6.20
2023-04-09T12:47:44.999Z,4.63
2023-04-09T12:50:12.851Z,4.30
2023-04-09T12:52:39.554Z,4.43
2023-04-09T12:55:07.199Z,4.28
2023-04-09T12:57:34.373Z,4.20
2023-04-09T13:00:01.213Z,3.95
2023-04-09T13:02:28.108Z,3.80
2023-04-09T13:04:54.855Z,3.42
2023-04-09T13:07:22.767Z,4.72
2023-04-09T13:09:52.617Z,4.43
2023-04-09T13:12:21.752Z,4.53
2023-04-09T13:14:49.315Z,4.88
2023-04-09T13:17:16.282Z,3.85
2023-04-09T13:19:43.144Z,4.00
2023-04-09T13:22:10.502Z,3.35
2023-04-09T13:24:37.833Z,4.35
2023-04-09T13:27:06.029Z,3.95
2023-04-09T13:29:32.716Z,4.68
2023-04-09T13:32:01.815Z,3.30
2023-04-09T13:34:28.762Z,4.15
2023-04-09T13:36:55.354Z,3.38
2023-04-09T13:39:21.982Z,3.83
2023-04-09T13:41:48.764Z,3.95
2023-04-09T13:44:15.674Z,4.47
2023-04-09T13:46:42.457Z,4.03
2023-04-09T13:49:09.161Z,3.38
2023-04-09T13:51:35.989Z,3.00
2023-04-09T13:54:05.300Z,3.13
2023-04-09T13:56:32.812Z,3.00
2023-04-09T13:58:59.857Z,4.07
2023-04-09T14:01:28.257Z,3.00
2023-04-09T14:03:55.457Z,3.58
2023-04-09T14:06:22.289Z,4.63
2023-04-09T14:08:48.884Z,7.18
2023-04-09T14:11:16.869Z,2.60
2023-04-09T14:13:43.602Z,3.85
2023-04-09T14:16:10.303Z,6.32
2023-04-09T14:18:37.389Z,2.88
2023-04-09T14:21:04.227Z,3.25
2023-04-09T14:23:30.884Z,3.97
2023-04-09T14:25:57.609Z,4.25
2023-04-09T14:28:24.172Z,3.47
2023-04-09T14:30:51.141Z,4.57
2023-04-09T14:33:17.938Z,2.90
2023-04-09T14:35:44.654Z,3.88
2023-04-09T14:38:11.433Z,3.72
2023-04-09T14:40:38.102Z,3.13
2023-04-09T14:43:04.738Z,2.60
2023-04-09T14:45:32.213Z,4.07
2023-04-09T14:47:58.991Z,3.63
2023-04-09T14:50:26.080Z,3.30
2023-04-09T14:52:52.903Z,3.47
2023-04-09T14:55:19.806Z,3.38
2023-04-09T14:57:46.746Z,2.95
2023-04-09T15:00:13.641Z,3.80
2023-04-09T15:02:41.638Z,3.53
2023-04-09T15:05:08.963Z,4.45
2023-04-09T15:07:35.593Z,3.85
2023-04-09T15:10:02.953Z,3.60
2023-04-09T15:12:31.684Z,4.70
2023-04-09T15:14:58.539Z,3.63
2023-04-09T15:17:26.517Z,3.22
2023-04-09T15:19:54.159Z,4.95
2023-04-09T15:22:21.510Z,5.68
2023-04-09T15:24:48.439Z,6.00
2023-04-09T15:27:15.057Z,3.65
2023-04-09T15:29:41.728Z,4.15
2023-04-09T15:32:11.725Z,3.60
2023-04-09T15:34:38.621Z,3.43
2023-04-09T15:37:05.283Z,3.33
2023-04-09T15:39:32.635Z,4.07
2023-04-09T15:41:59.481Z,4.53
2023-04-09T15:44:26.244Z,3.90
2023-04-09T15:46:52.895Z,7.53
2023-04-09T15:49:19.787Z,3.58
2023-04-09T15:51:46.529Z,4.50
2023-04-09T15:54:13.224Z,3.72
2023-04-09T15:56:40.411Z,6.38
2023-04-09T15:59:08.443Z,4.50
2023-04-09T16:01:36.627Z,3.67
2023-04-09T16:04:04.867Z,3.88
2023-04-09T16:06:31.712Z,4.40
2023-04-09T16:08:58.504Z,4.70
2023-04-09T16:11:26.002Z,3.72
2023-04-09T16:13:52.806Z,4.28
2023-04-09T16:16:19.750Z,4.40
2023-04-09T16:18:46.472Z,3.92
2023-04-09T16:21:13.014Z,3.22
2023-04-09T16:23:40.854Z,3.80
2023-04-09T16:26:07.530Z,3.67
2023-04-09T16:28:34.141Z,3.97
2023-04-09T16:31:00.993Z,3.88
2023-04-09T16:33:27.654Z,6.03
2023-04-09T16:35:54.387Z,4.28
2023-04-09T16:38:21.127Z,4.10
2023-04-09T16:40:47.810Z,4.18
2023-04-09T16:43:14.386Z,5.20
2023-04-09T16:45:41.283Z,4.05
2023-04-09T16:48:12.065Z,4.88
2023-04-09T16:50:39.978Z,4.05
2023-04-09T16:53:06.970Z,4.22
2023-04-09T16:55:34.145Z,4.20
2023-04-09T16:58:00.991Z,3.80
2023-04-09T17:00:27.793Z,4.70
2023-04-09T17:02:56.059Z,5.90
2023-04-09T17:05:22.943Z,4.00
2023-04-09T17:07:49.886Z,4.68
2023-04-09T17:10:16.561Z,4.47
2023-04-09T17:12:43.734Z,3.95
2023-04-09T17:15:11.248Z,4.55
2023-04-09T17:17:38.167Z,5.35
2023-04-09T17:20:05.782Z,7.80
2023-04-09T17:22:32.639Z,9.35
2023-04-09T17:24:59.368Z,8.05
2023-04-09T17:27:26.024Z,6.13
2023-04-09T17:29:53.852Z,5.72
2023-04-09T17:32:20.693Z,4.40
2023-04-09T17:34:49.463Z,4.93
2023-04-09T17:37:16.642Z,7.40
2023-04-09T17:39:43.260Z,5.22
2023-04-09T17:42:12.122Z,4.65
2023-04-09T17:44:39.085Z,4.32
2023-04-09T17:47:07.535Z,5.43
2023-04-09T17:49:34.556Z,4.65
2023-04-09T17:52:01.661Z,5.72
2023-04-09T17:54:35.114Z,6.13
2023-04-09T17:57:04.212Z,4.10
2023-04-09T17:59:32.296Z,3.75
2023-04-09T18:02:01.771Z,5.60
2023-04-09T18:04:28.945Z,4.57
2023-04-09T18:06:56.169Z,4.78
2023-04-09T18:09:22.788Z,5.53
2023-04-09T18:11:53.498Z,5.40
2023-04-09T18:14:20.333Z,6.35
2023-04-09T18:16:48.347Z,7.65
2023-04-09T18:19:15.597Z,7.55
2023-04-09T18:21:42.235Z,7.38
2023-04-09T18:24:08.915Z,9.45
2023-04-09T18:26:36.737Z,8.77
2023-04-09T18:29:03.574Z,8.63
2023-04-09T18:31:30.235Z,7.88
2023-04-09T18:33:56.933Z,4.80
2023-04-09T18:36:23.551Z,4.75
2023-04-09T18:38:50.098Z,4.65
2023-04-09T18:41:27.105Z,4.10
2023-04-09T18:43:54.308Z,3.78
2023-04-09T18:46:20.946Z,5.57
2023-04-09T18:48:47.665Z,3.05
2023-04-09T18:51:14.701Z,4.65
2023-04-09T18:53:42.133Z,5.32
2023-04-09T18:56:09.094Z,4.75
2023-04-09T18:58:36.349Z,4.97
2023-04-09T19:01:12.878Z,4.45
2023-04-09T19:03:40.586Z,4.43
2023-04-09T19:06:12.292Z,5.15
2023-04-09T19:08:39.304Z,4.72
2023-04-09T19:11:07.652Z,6.07
2023-04-09T19:13:34.501Z,6.72
2023-04-09T19:16:01.453Z,7.68
2023-04-09T19:18:28.284Z,7.13
2023-04-09T19:20:54.957Z,8.23
2023-04-09T19:23:21.627Z,6.72
2023-04-09T19:25:53.493Z,7.05
2023-04-09T19:28:20.080Z,7.97
2023-04-09T19:30:46.967Z,4.88
2023-04-09T19:33:13.609Z,5.07
2023-04-09T19:35:43.031Z,6.40
2023-04-09T19:38:09.822Z,5.72
2023-04-09T19:40:36.425Z,5.25
2023-04-09T19:43:03.369Z,5.03
2023-04-09T19:45:30.038Z,5.07
2023-04-09T19:47:57.948Z,5.43
2023-04-09T19:50:24.734Z,5.10
2023-04-09T19:52:53.222Z,5.00
2023-04-09T19:55:19.842Z,5.38
2023-04-09T19:57:46.600Z,4.68
2023-04-09T20:00:14.708Z,4.95
2023-04-09T20:02:41.857Z,4.47
2023-04-09T20:05:10.352Z,4.75
2023-04-09T20:07:37.418Z,4.70
2023-04-09T20:10:04.217Z,4.10
2023-04-09T20:12:30.927Z,3.97
2023-04-09T20:14:57.885Z,7.13
2023-04-09T20:17:24.956Z,7.05
2023-04-09T20:19:51.738Z,6.22
2023-04-09T20:22:18.340Z,7.43
2023-04-09T20:24:45.010Z,5.35
2023-04-09T20:27:12.004Z,7.55
2023-04-09T20:29:39.737Z,5.07
2023-04-09T20:32:06.510Z,5.68
2023-04-09T20:34:33.154Z,5.80
2023-04-09T20:37:00.235Z,7.43
2023-04-09T20:39:26.991Z,5.85
2023-04-09T20:41:55.146Z,5.63
2023-04-09T20:44:22.515Z,7.40
2023-04-09T20:46:49.060Z,6.32
2023-04-09T20:49:15.865Z,7.40
2023-04-09T20:51:42.445Z,5.68
2023-04-09T20:54:09.143Z,5.35
2023-04-09T20:56:35.907Z,4.50
2023-04-09T20:59:02.474Z,7.82
2023-04-09T21:01:29.472Z,7.22
2023-04-09T21:03:56.885Z,4.40
2023-04-09T21:06:23.678Z,8.55
2023-04-09T21:08:51.815Z,4.15
2023-04-09T21:11:18.612Z,4.68
2023-04-09T21:13:54.503Z,4.82
2023-04-09T21:16:22.194Z,5.63
2023-04-09T21:18:48.954Z,4.78
2023-04-09T21:21:15.638Z,5.28
2023-04-09T21:23:42.311Z,5.97
2023-04-09T21:26:10.157Z,5.18
2023-04-09T21:28:36.786Z,5.47
2023-04-09T21:31:03.719Z,6.97
2023-04-09T21:33:30.435Z,5.53
2023-04-09T21:35:57.201Z,6.25
2023-04-09T21:38:23.870Z,6.10
2023-04-09T21:40:50.692Z,6.18
2023-04-09T21:43:17.319Z,6.57
2023-04-09T21:45:43.942Z,5.78
2023-04-09T21:48:10.616Z,5.95
2023-04-09T21:50:37.218Z,7.55
2023-04-09T21:53:03.886Z,6.10
2023-04-09T21:55:30.503Z,6.20
2023-04-09T21:57:57.132Z,6.43
2023-04-09T22:00:23.804Z,5.20
2023-04-09T22:02:50.853Z,6.38
2023-04-09T22:05:17.589Z,9.52
2023-04-09T22:07:44.683Z,4.95
2023-04-09T22:10:11.502Z,6.20
2023-04-09T22:12:38.115Z,5.90
2023-04-09T22:15:05.821Z,5.22
2023-04-09T22:17:32.532Z,5.43
2023-04-09T22:19:59.182Z,4.45
2023-04-09T22:22:25.949Z,4.28
2023-04-09T22:24:52.563Z,4.85
2023-04-09T22:27:19.167Z,5.65
2023-04-09T22:29:46.223Z,6.20
2023-04-09T22:32:13.019Z,4.22
2023-04-09T22:34:39.647Z,5.85
2023-04-09T22:37:06.480Z,7.55
2023-04-09T22:39:33.268Z,5.43
2023-04-09T22:41:59.882Z,5.55
2023-04-09T22:44:26.558Z,5.80
2023-04-09T22:46:53.302Z,5.70
2023-04-09T22:49:20.312Z,5.07
2023-04-09T22:51:47.160Z,13.30
2023-04-09T22:54:13.714Z,6.55
2023-04-09T22:56:40.442Z,6.72
2023-04-09T22:59:07.326Z,5.10
2023-04-09T23:01:34.354Z,5.80
2023-04-09T23:04:01.602Z,6.22
2023-04-09T23:06:28.889Z,6.00
2023-04-09T23:08:55.643Z,6.50
2023-04-09T23:11:22.492Z,5.95
2023-04-09T23:13:49.147Z,5.75
2023-04-09T23:16:15.876Z,5.70
2023-04-09T23:18:42.562Z,5.93
2023-04-09T23:21:10.662Z,5.63
2023-04-09T23:23:38.220Z,6.68
2023-04-09T23:26:05.900Z,6.70
2023-04-09T23:28:33.330Z,5.95
2023-04-09T23:31:00.079Z,5.75
2023-04-09T23:33:26.840Z,6.53
2023-04-09T23:35:53.506Z,7.32
2023-04-09T23:38:20.241Z,5.72
2023-04-09T23:40:48.540Z,5.93
2023-04-09T23:43:15.220Z,5.97
2023-04-09T23:45:43.364Z,5.78
2023-04-09T23:48:12.324Z,6.25
2023-04-09T23:50:40.917Z,5.90
2023-04-09T23:53:07.736Z,5.45
2023-04-09T23:55:38.207Z,9.88
2023-04-09T23:58:05.441Z,7.35
